sensor_id;sensor_type;location;lat;lon;timestamp;temperature;humidity
6114;DHT22;3087;48.392;10.836;2023-07-28T00:01:30;18.10;99.90
6114;DHT22;3087;48.392;10.836;2023-07-28T00:03:56;18.20;99.90
6114;DHT22;3087;48.392;10.836;2023-07-28T00:06:23;18.30;99.90
6114;DHT22;3087;48.392;10.836;2023-07-28T00:08:48;18.30;99.90
6114;DHT22;3087;48.392;10.836;2023-07-28T00:11:15;18.30;99.90
6114;DHT22;3087;48.392;10.836;2023-07-28T00:13:42;18.30;99.90
6114;DHT22;3087;48.392;10.836;2023-07-28T00:16:08;18.30;99.90
6114;DHT22;3087;48.392;10.836;2023-07-28T00:18:34;18.20;99.90
6114;DHT22;3087;48.392;10.836;2023-07-28T00:21:00;18.10;99.90
6114;DHT22;3087;48.392;10.836;2023-07-28T00:23:26;18.00;99.90
6114;DHT22;3087;48.392;10.836;2023-07-28T00:25:51;17.70;99.90
6114;DHT22;3087;48.392;10.836;2023-07-28T00:28:17;17.60;99.90
6114;DHT22;3087;48.392;10.836;2023-07-28T00:30:43;17.60;99.90
6114;DHT22;3087;48.392;10.836;2023-07-28T00:33:08;17.60;99.90
6114;DHT22;3087;48.392;10.836;2023-07-28T00:35:34;17.60;99.90
6114;DHT22;3087;48.392;10.836;2023-07-28T00:38:00;17.60;99.90
6114;DHT22;3087;48.392;10.836;2023-07-28T00:40:25;17.50;99.90
6114;DHT22;3087;48.392;10.836;2023-07-28T00:42:51;17.40;99.90
6114;DHT22;3087;48.392;10.836;2023-07-28T00:45:17;17.20;99.90
6114;DHT22;3087;48.392;10.836;2023-07-28T00:47:44;17.00;99.90
6114;DHT22;3087;48.392;10.836;2023-07-28T00:50:10;17.00;99.90
6114;DHT22;3087;48.392;10.836;2023-07-28T00:52:37;17.10;99.90
6114;DHT22;3087;48.392;10.836;2023-07-28T00:55:03;17.00;99.90
6114;DHT22;3087;48.392;10.836;2023-07-28T00:57:28;17.00;99.90
6114;DHT22;3087;48.392;10.836;2023-07-28T00:59:54;17.10;99.90
6114;DHT22;3087;48.392;10.836;2023-07-28T01:02:20;17.10;99.90
6114;DHT22;3087;48.392;10.836;2023-07-28T01:04:47;17.00;99.90
6114;DHT22;3087;48.392;10.836;2023-07-28T01:07:14;17.00;99.90
6114;DHT22;3087;48.392;10.836;2023-07-28T01:09:50;17.10;99.90
6114;DHT22;3087;48.392;10.836;2023-07-28T01:12:24;17.10;99.90
6114;DHT22;3087;48.392;10.836;2023-07-28T01:14:49;17.00;99.90
6114;DHT22;3087;48.392;10.836;2023-07-28T01:17:15;17.00;99.90
6114;DHT22;3087;48.392;10.836;2023-07-28T01:19:41;17.00;99.90
6114;DHT22;3087;48.392;10.836;2023-07-28T01:27:16;17.20;99.90
6114;DHT22;3087;48.392;10.836;2023-07-28T01:29:42;17.20;99.90
6114;DHT22;3087;48.392;10.836;2023-07-28T01:32:08;17.20;99.90
6114;DHT22;3087;48.392;10.836;2023-07-28T01:34:35;17.20;99.90
6114;DHT22;3087;48.392;10.836;2023-07-28T01:37:01;17.30;99.90
6114;DHT22;3087;48.392;10.836;2023-07-28T01:39:26;17.20;99.90
6114;DHT22;3087;48.392;10.836;2023-07-28T01:41:52;17.10;99.90
6114;DHT22;3087;48.392;10.836;2023-07-28T01:44:17;17.10;99.90
6114;DHT22;3087;48.392;10.836;2023-07-28T01:46:43;17.40;99.90
6114;DHT22;3087;48.392;10.836;2023-07-28T01:49:09;17.20;99.90
6114;DHT22;3087;48.392;10.836;2023-07-28T01:51:34;17.20;99.90
6114;DHT22;3087;48.392;10.836;2023-07-28T01:54:00;17.10;99.90
6114;DHT22;3087;48.392;10.836;2023-07-28T01:56:25;17.00;99.90
6114;DHT22;3087;48.392;10.836;2023-07-28T01:58:51;17.10;99.90
6114;DHT22;3087;48.392;10.836;2023-07-28T02:01:18;17.20;99.90
6114;DHT22;3087;48.392;10.836;2023-07-28T02:03:43;17.10;99.90
6114;DHT22;3087;48.392;10.836;2023-07-28T02:06:09;17.10;99.90
6114;DHT22;3087;48.392;10.836;2023-07-28T02:08:34;16.90;99.90
6114;DHT22;3087;48.392;10.836;2023-07-28T02:11:00;16.80;99.90
6114;DHT22;3087;48.392;10.836;2023-07-28T02:13:25;16.80;99.90
6114;DHT22;3087;48.392;10.836;2023-07-28T02:15:51;16.80;99.90
6114;DHT22;3087;48.392;10.836;2023-07-28T02:18:17;17.10;99.90
6114;DHT22;3087;48.392;10.836;2023-07-28T02:20:42;16.80;99.90
6114;DHT22;3087;48.392;10.836;2023-07-28T02:23:08;16.90;99.90
6114;DHT22;3087;48.392;10.836;2023-07-28T02:25:33;16.90;99.90
6114;DHT22;3087;48.392;10.836;2023-07-28T02:27:59;16.80;99.90
6114;DHT22;3087;48.392;10.836;2023-07-28T02:30:24;16.90;99.90
6114;DHT22;3087;48.392;10.836;2023-07-28T02:32:50;16.90;99.90
6114;DHT22;3087;48.392;10.836;2023-07-28T02:35:16;16.90;99.90
6114;DHT22;3087;48.392;10.836;2023-07-28T02:37:41;16.90;99.90
6114;DHT22;3087;48.392;10.836;2023-07-28T02:40:08;16.90;99.90
6114;DHT22;3087;48.392;10.836;2023-07-28T02:42:34;17.00;99.90
6114;DHT22;3087;48.392;10.836;2023-07-28T02:45:01;17.00;99.90
6114;DHT22;3087;48.392;10.836;2023-07-28T02:47:27;17.00;99.90
6114;DHT22;3087;48.392;10.836;2023-07-28T02:49:52;16.90;99.90
6114;DHT22;3087;48.392;10.836;2023-07-28T02:52:18;16.90;99.90
6114;DHT22;3087;48.392;10.836;2023-07-28T02:54:44;17.00;99.90
6114;DHT22;3087;48.392;10.836;2023-07-28T02:57:09;17.00;99.90
6114;DHT22;3087;48.392;10.836;2023-07-28T02:59:35;17.20;99.90
6114;DHT22;3087;48.392;10.836;2023-07-28T03:02:00;16.80;99.90
6114;DHT22;3087;48.392;10.836;2023-07-28T03:04:26;16.80;99.90
6114;DHT22;3087;48.392;10.836;2023-07-28T03:06:52;16.70;99.90
6114;DHT22;3087;48.392;10.836;2023-07-28T03:09:17;16.70;99.90
6114;DHT22;3087;48.392;10.836;2023-07-28T03:11:43;17.00;99.90
6114;DHT22;3087;48.392;10.836;2023-07-28T03:14:09;16.80;99.90
6114;DHT22;3087;48.392;10.836;2023-07-28T03:16:35;16.40;99.90
6114;DHT22;3087;48.392;10.836;2023-07-28T03:19:00;16.30;99.90
6114;DHT22;3087;48.392;10.836;2023-07-28T03:21:29;16.50;99.90
6114;DHT22;3087;48.392;10.836;2023-07-28T03:23:55;16.10;99.90
6114;DHT22;3087;48.392;10.836;2023-07-28T03:26:20;16.00;99.90
6114;DHT22;3087;48.392;10.836;2023-07-28T03:28:46;15.90;99.90
6114;DHT22;3087;48.392;10.836;2023-07-28T03:31:12;15.80;99.90
6114;DHT22;3087;48.392;10.836;2023-07-28T03:33:37;15.70;99.90
6114;DHT22;3087;48.392;10.836;2023-07-28T03:36:03;15.70;99.90
6114;DHT22;3087;48.392;10.836;2023-07-28T03:38:28;15.70;99.90
6114;DHT22;3087;48.392;10.836;2023-07-28T03:40:54;15.70;99.90
6114;DHT22;3087;48.392;10.836;2023-07-28T03:43:20;15.70;99.90
6114;DHT22;3087;48.392;10.836;2023-07-28T03:45:46;15.70;99.90
6114;DHT22;3087;48.392;10.836;2023-07-28T03:48:12;16.20;99.90
6114;DHT22;3087;48.392;10.836;2023-07-28T03:50:37;15.90;99.90
6114;DHT22;3087;48.392;10.836;2023-07-28T03:53:03;16.30;99.90
6114;DHT22;3087;48.392;10.836;2023-07-28T03:55:28;16.40;99.90
6114;DHT22;3087;48.392;10.836;2023-07-28T03:57:54;16.10;99.90
6114;DHT22;3087;48.392;10.836;2023-07-28T04:00:19;16.20;99.90
6114;DHT22;3087;48.392;10.836;2023-07-28T04:02:45;16.20;99.90
6114;DHT22;3087;48.392;10.836;2023-07-28T04:05:11;16.30;99.90
6114;DHT22;3087;48.392;10.836;2023-07-28T04:07:37;16.20;99.90
6114;DHT22;3087;48.392;10.836;2023-07-28T04:10:03;16.20;99.90
6114;DHT22;3087;48.392;10.836;2023-07-28T04:12:29;16.30;99.90
6114;DHT22;3087;48.392;10.836;2023-07-28T04:14:55;16.40;99.90
6114;DHT22;3087;48.392;10.836;2023-07-28T04:17:20;16.60;99.90
6114;DHT22;3087;48.392;10.836;2023-07-28T04:19:46;16.60;99.90
6114;DHT22;3087;48.392;10.836;2023-07-28T04:22:11;16.70;99.90
6114;DHT22;3087;48.392;10.836;2023-07-28T04:24:38;16.80;99.90
6114;DHT22;3087;48.392;10.836;2023-07-28T04:27:04;16.80;99.90
6114;DHT22;3087;48.392;10.836;2023-07-28T04:29:30;16.90;99.90
6114;DHT22;3087;48.392;10.836;2023-07-28T04:31:55;17.00;99.90
6114;DHT22;3087;48.392;10.836;2023-07-28T04:34:21;17.10;99.90
6114;DHT22;3087;48.392;10.836;2023-07-28T04:36:46;17.30;99.90
6114;DHT22;3087;48.392;10.836;2023-07-28T04:39:12;17.30;99.90
6114;DHT22;3087;48.392;10.836;2023-07-28T04:41:38;17.40;99.90
6114;DHT22;3087;48.392;10.836;2023-07-28T04:44:03;17.70;99.90
6114;DHT22;3087;48.392;10.836;2023-07-28T04:46:29;17.50;99.90
6114;DHT22;3087;48.392;10.836;2023-07-28T04:48:55;17.90;99.90
6114;DHT22;3087;48.392;10.836;2023-07-28T04:51:21;17.50;99.90
6114;DHT22;3087;48.392;10.836;2023-07-28T04:53:46;17.70;99.90
6114;DHT22;3087;48.392;10.836;2023-07-28T04:56:12;17.60;99.90
6114;DHT22;3087;48.392;10.836;2023-07-28T04:58:37;17.40;99.90
6114;DHT22;3087;48.392;10.836;2023-07-28T05:01:04;17.50;99.90
6114;DHT22;3087;48.392;10.836;2023-07-28T05:03:30;17.40;99.90
6114;DHT22;3087;48.392;10.836;2023-07-28T05:05:56;17.40;99.90
6114;DHT22;3087;48.392;10.836;2023-07-28T05:08:21;17.40;99.90
6114;DHT22;3087;48.392;10.836;2023-07-28T05:10:48;17.40;99.90
6114;DHT22;3087;48.392;10.836;2023-07-28T05:13:14;17.40;99.90
6114;DHT22;3087;48.392;10.836;2023-07-28T05:15:39;17.50;99.90
6114;DHT22;3087;48.392;10.836;2023-07-28T05:18:05;17.50;99.90
6114;DHT22;3087;48.392;10.836;2023-07-28T05:20:30;17.50;99.90
6114;DHT22;3087;48.392;10.836;2023-07-28T05:22:56;17.60;99.90
6114;DHT22;3087;48.392;10.836;2023-07-28T05:25:21;17.70;99.90
6114;DHT22;3087;48.392;10.836;2023-07-28T05:27:47;17.80;99.90
6114;DHT22;3087;48.392;10.836;2023-07-28T05:30:13;17.90;99.90
6114;DHT22;3087;48.392;10.836;2023-07-28T05:32:38;18.00;99.90
6114;DHT22;3087;48.392;10.836;2023-07-28T05:35:04;18.00;99.90
6114;DHT22;3087;48.392;10.836;2023-07-28T05:37:30;18.10;99.90
6114;DHT22;3087;48.392;10.836;2023-07-28T05:39:56;18.10;99.90
6114;DHT22;3087;48.392;10.836;2023-07-28T05:42:21;18.30;99.90
6114;DHT22;3087;48.392;10.836;2023-07-28T05:44:47;18.40;99.90
6114;DHT22;3087;48.392;10.836;2023-07-28T05:47:12;18.20;99.90
6114;DHT22;3087;48.392;10.836;2023-07-28T05:49:38;18.30;99.90
6114;DHT22;3087;48.392;10.836;2023-07-28T05:52:04;18.40;99.90
6114;DHT22;3087;48.392;10.836;2023-07-28T05:54:30;18.50;99.90
6114;DHT22;3087;48.392;10.836;2023-07-28T05:56:55;18.50;99.90
6114;DHT22;3087;48.392;10.836;2023-07-28T05:59:21;18.50;99.90
6114;DHT22;3087;48.392;10.836;2023-07-28T06:01:46;18.50;99.90
6114;DHT22;3087;48.392;10.836;2023-07-28T06:04:12;18.60;99.90
6114;DHT22;3087;48.392;10.836;2023-07-28T06:06:38;18.70;99.90
6114;DHT22;3087;48.392;10.836;2023-07-28T06:09:03;18.70;99.90
6114;DHT22;3087;48.392;10.836;2023-07-28T06:11:29;18.90;99.90
6114;DHT22;3087;48.392;10.836;2023-07-28T06:13:54;18.90;99.90
6114;DHT22;3087;48.392;10.836;2023-07-28T06:16:20;19.00;99.90
6114;DHT22;3087;48.392;10.836;2023-07-28T06:18:45;19.20;99.90
6114;DHT22;3087;48.392;10.836;2023-07-28T06:21:11;19.20;99.90
6114;DHT22;3087;48.392;10.836;2023-07-28T06:23:37;19.30;99.90
6114;DHT22;3087;48.392;10.836;2023-07-28T06:26:02;19.50;99.90
6114;DHT22;3087;48.392;10.836;2023-07-28T06:28:28;19.60;99.90
6114;DHT22;3087;48.392;10.836;2023-07-28T06:30:57;19.80;99.90
6114;DHT22;3087;48.392;10.836;2023-07-28T06:33:24;20.00;99.90
6114;DHT22;3087;48.392;10.836;2023-07-28T06:35:50;20.10;99.90
6114;DHT22;3087;48.392;10.836;2023-07-28T06:38:16;20.30;99.90
6114;DHT22;3087;48.392;10.836;2023-07-28T06:40:41;20.40;99.90
6114;DHT22;3087;48.392;10.836;2023-07-28T06:43:07;20.50;99.90
6114;DHT22;3087;48.392;10.836;2023-07-28T06:45:33;20.60;99.90
6114;DHT22;3087;48.392;10.836;2023-07-28T06:47:59;20.70;99.90
6114;DHT22;3087;48.392;10.836;2023-07-28T06:50:24;20.80;99.90
6114;DHT22;3087;48.392;10.836;2023-07-28T06:52:50;20.90;99.90
6114;DHT22;3087;48.392;10.836;2023-07-28T06:55:17;21.00;99.90
6114;DHT22;3087;48.392;10.836;2023-07-28T06:57:43;21.10;99.90
6114;DHT22;3087;48.392;10.836;2023-07-28T07:00:09;21.30;99.90
6114;DHT22;3087;48.392;10.836;2023-07-28T07:02:35;21.30;99.90
6114;DHT22;3087;48.392;10.836;2023-07-28T07:05:01;21.30;99.90
6114;DHT22;3087;48.392;10.836;2023-07-28T07:07:27;21.30;99.90
6114;DHT22;3087;48.392;10.836;2023-07-28T07:09:52;21.20;99.90
6114;DHT22;3087;48.392;10.836;2023-07-28T07:12:18;21.20;99.90
6114;DHT22;3087;48.392;10.836;2023-07-28T07:14:45;21.30;99.90
6114;DHT22;3087;48.392;10.836;2023-07-28T07:17:11;21.20;99.90
6114;DHT22;3087;48.392;10.836;2023-07-28T07:19:37;21.20;99.90
6114;DHT22;3087;48.392;10.836;2023-07-28T07:22:02;21.20;99.90
6114;DHT22;3087;48.392;10.836;2023-07-28T07:24:28;21.20;99.90
6114;DHT22;3087;48.392;10.836;2023-07-28T07:26:54;21.30;99.90
6114;DHT22;3087;48.392;10.836;2023-07-28T07:29:19;21.40;99.90
6114;DHT22;3087;48.392;10.836;2023-07-28T07:31:45;21.50;99.90
6114;DHT22;3087;48.392;10.836;2023-07-28T07:34:11;21.60;99.90
6114;DHT22;3087;48.392;10.836;2023-07-28T07:36:36;21.70;99.90
6114;DHT22;3087;48.392;10.836;2023-07-28T07:39:02;21.80;99.90
6114;DHT22;3087;48.392;10.836;2023-07-28T07:41:28;21.70;99.90
6114;DHT22;3087;48.392;10.836;2023-07-28T07:43:54;21.70;99.90
6114;DHT22;3087;48.392;10.836;2023-07-28T07:46:20;21.60;99.90
6114;DHT22;3087;48.392;10.836;2023-07-28T07:48:46;21.70;99.90
6114;DHT22;3087;48.392;10.836;2023-07-28T07:51:12;21.70;99.90
6114;DHT22;3087;48.392;10.836;2023-07-28T07:53:37;21.80;99.90
6114;DHT22;3087;48.392;10.836;2023-07-28T07:56:04;21.90;99.90
6114;DHT22;3087;48.392;10.836;2023-07-28T07:58:30;22.10;99.90
6114;DHT22;3087;48.392;10.836;2023-07-28T08:00:56;22.10;99.90
6114;DHT22;3087;48.392;10.836;2023-07-28T08:03:22;22.20;99.90
6114;DHT22;3087;48.392;10.836;2023-07-28T08:05:47;22.40;99.90
6114;DHT22;3087;48.392;10.836;2023-07-28T08:08:13;22.40;99.90
6114;DHT22;3087;48.392;10.836;2023-07-28T08:10:43;22.50;99.90
6114;DHT22;3087;48.392;10.836;2023-07-28T08:13:09;22.50;99.90
6114;DHT22;3087;48.392;10.836;2023-07-28T08:15:35;22.50;99.90
6114;DHT22;3087;48.392;10.836;2023-07-28T08:18:01;22.50;99.90
6114;DHT22;3087;48.392;10.836;2023-07-28T08:20:26;22.50;99.90
6114;DHT22;3087;48.392;10.836;2023-07-28T08:22:52;22.40;99.90
6114;DHT22;3087;48.392;10.836;2023-07-28T08:25:18;22.50;99.90
6114;DHT22;3087;48.392;10.836;2023-07-28T08:27:44;22.50;99.90
6114;DHT22;3087;48.392;10.836;2023-07-28T08:30:10;22.80;99.90
6114;DHT22;3087;48.392;10.836;2023-07-28T08:32:36;22.90;99.90
6114;DHT22;3087;48.392;10.836;2023-07-28T08:35:02;23.00;99.90
6114;DHT22;3087;48.392;10.836;2023-07-28T08:37:28;23.10;99.90
6114;DHT22;3087;48.392;10.836;2023-07-28T08:39:54;23.00;99.90
6114;DHT22;3087;48.392;10.836;2023-07-28T08:42:21;23.00;99.90
6114;DHT22;3087;48.392;10.836;2023-07-28T08:44:48;23.00;99.90
6114;DHT22;3087;48.392;10.836;2023-07-28T08:47:17;22.90;99.90
6114;DHT22;3087;48.392;10.836;2023-07-28T08:49:43;23.20;99.90
6114;DHT22;3087;48.392;10.836;2023-07-28T08:52:08;23.50;99.90
6114;DHT22;3087;48.392;10.836;2023-07-28T08:54:34;23.60;99.90
6114;DHT22;3087;48.392;10.836;2023-07-28T08:57:00;23.60;99.90
6114;DHT22;3087;48.392;10.836;2023-07-28T08:59:28;23.60;99.90
6114;DHT22;3087;48.392;10.836;2023-07-28T09:01:55;23.70;99.90
6114;DHT22;3087;48.392;10.836;2023-07-28T09:04:22;23.90;99.90
6114;DHT22;3087;48.392;10.836;2023-07-28T09:06:48;24.10;99.90
6114;DHT22;3087;48.392;10.836;2023-07-28T09:09:15;24.40;99.90
6114;DHT22;3087;48.392;10.836;2023-07-28T09:11:49;24.60;99.90
6114;DHT22;3087;48.392;10.836;2023-07-28T09:14:16;24.50;99.90
6114;DHT22;3087;48.392;10.836;2023-07-28T09:16:43;24.50;99.90
6114;DHT22;3087;48.392;10.836;2023-07-28T09:19:09;24.50;99.90
6114;DHT22;3087;48.392;10.836;2023-07-28T09:21:35;24.40;99.90
6114;DHT22;3087;48.392;10.836;2023-07-28T09:24:11;24.50;99.90
6114;DHT22;3087;48.392;10.836;2023-07-28T09:26:45;24.60;99.90
6114;DHT22;3087;48.392;10.836;2023-07-28T09:29:16;24.40;99.90
6114;DHT22;3087;48.392;10.836;2023-07-28T09:31:42;24.40;99.90
6114;DHT22;3087;48.392;10.836;2023-07-28T09:34:09;24.20;99.90
6114;DHT22;3087;48.392;10.836;2023-07-28T09:36:36;24.10;99.90
6114;DHT22;3087;48.392;10.836;2023-07-28T09:39:04;24.30;99.90
6114;DHT22;3087;48.392;10.836;2023-07-28T09:41:34;24.30;99.90
6114;DHT22;3087;48.392;10.836;2023-07-28T09:44:00;22.70;99.90
6114;DHT22;3087;48.392;10.836;2023-07-28T09:46:28;24.70;99.90
6114;DHT22;3087;48.392;10.836;2023-07-28T09:48:56;25.20;99.90
6114;DHT22;3087;48.392;10.836;2023-07-28T09:51:29;22.70;99.90
6114;DHT22;3087;48.392;10.836;2023-07-28T09:54:06;28.60;99.90
6114;DHT22;3087;48.392;10.836;2023-07-28T09:56:32;25.10;99.90
6114;DHT22;3087;48.392;10.836;2023-07-28T09:58:59;25.00;99.90
6114;DHT22;3087;48.392;10.836;2023-07-28T10:01:27;25.40;99.90
6114;DHT22;3087;48.392;10.836;2023-07-28T10:03:53;26.20;99.90
6114;DHT22;3087;48.392;10.836;2023-07-28T10:06:19;25.60;99.90
6114;DHT22;3087;48.392;10.836;2023-07-28T10:08:47;25.20;99.90
6114;DHT22;3087;48.392;10.836;2023-07-28T10:11:15;24.90;99.90
6114;DHT22;3087;48.392;10.836;2023-07-28T10:13:42;24.70;99.90
6114;DHT22;3087;48.392;10.836;2023-07-28T10:16:09;24.30;99.90
6114;DHT22;3087;48.392;10.836;2023-07-28T10:18:35;24.00;99.90
6114;DHT22;3087;48.392;10.836;2023-07-28T10:21:09;23.90;99.90
6114;DHT22;3087;48.392;10.836;2023-07-28T10:23:38;24.00;99.90
6114;DHT22;3087;48.392;10.836;2023-07-28T10:26:04;24.00;99.90
6114;DHT22;3087;48.392;10.836;2023-07-28T10:28:39;24.00;99.90
6114;DHT22;3087;48.392;10.836;2023-07-28T10:31:09;24.00;99.90
6114;DHT22;3087;48.392;10.836;2023-07-28T10:33:40;23.80;99.90
6114;DHT22;3087;48.392;10.836;2023-07-28T10:39:15;24.40;99.90
6114;DHT22;3087;48.392;10.836;2023-07-28T10:44:29;24.60;99.90
6114;DHT22;3087;48.392;10.836;2023-07-28T10:46:55;24.60;99.90
6114;DHT22;3087;48.392;10.836;2023-07-28T10:49:21;24.40;99.90
6114;DHT22;3087;48.392;10.836;2023-07-28T10:51:48;24.40;99.90
6114;DHT22;3087;48.392;10.836;2023-07-28T10:54:14;24.50;99.90
6114;DHT22;3087;48.392;10.836;2023-07-28T10:56:42;24.80;99.90
6114;DHT22;3087;48.392;10.836;2023-07-28T10:59:07;27.80;99.90
6114;DHT22;3087;48.392;10.836;2023-07-28T11:01:37;25.30;99.90
6114;DHT22;3087;48.392;10.836;2023-07-28T11:04:21;25.30;99.90
6114;DHT22;3087;48.392;10.836;2023-07-28T11:06:50;25.00;99.90
6114;DHT22;3087;48.392;10.836;2023-07-28T11:09:17;25.00;99.90
6114;DHT22;3087;48.392;10.836;2023-07-28T11:11:44;24.90;99.90
6114;DHT22;3087;48.392;10.836;2023-07-28T11:14:09;25.00;99.90
6114;DHT22;3087;48.392;10.836;2023-07-28T11:16:36;25.00;99.90
6114;DHT22;3087;48.392;10.836;2023-07-28T11:19:03;24.80;99.90
6114;DHT22;3087;48.392;10.836;2023-07-28T11:21:39;24.90;99.90
6114;DHT22;3087;48.392;10.836;2023-07-28T11:24:06;25.10;99.90
6114;DHT22;3087;48.392;10.836;2023-07-28T11:26:35;25.50;99.90
6114;DHT22;3087;48.392;10.836;2023-07-28T11:29:01;26.10;99.90
6114;DHT22;3087;48.392;10.836;2023-07-28T11:31:26;26.50;99.90
6114;DHT22;3087;48.392;10.836;2023-07-28T11:33:53;26.60;99.90
6114;DHT22;3087;48.392;10.836;2023-07-28T11:36:25;26.40;99.90
6114;DHT22;3087;48.392;10.836;2023-07-28T11:38:52;26.40;99.90
6114;DHT22;3087;48.392;10.836;2023-07-28T11:41:20;26.40;99.90
6114;DHT22;3087;48.392;10.836;2023-07-28T11:43:48;26.70;99.90
6114;DHT22;3087;48.392;10.836;2023-07-28T11:46:39;27.40;99.90
6114;DHT22;3087;48.392;10.836;2023-07-28T11:49:20;26.90;99.90
6114;DHT22;3087;48.392;10.836;2023-07-28T11:51:53;27.60;99.90
6114;DHT22;3087;48.392;10.836;2023-07-28T11:54:22;28.10;99.90
6114;DHT22;3087;48.392;10.836;2023-07-28T11:56:49;28.70;99.90
6114;DHT22;3087;48.392;10.836;2023-07-28T11:59:16;27.60;99.90
6114;DHT22;3087;48.392;10.836;2023-07-28T12:01:58;28.00;99.90
6114;DHT22;3087;48.392;10.836;2023-07-28T12:04:26;27.80;99.90
6114;DHT22;3087;48.392;10.836;2023-07-28T12:07:07;27.50;99.90
6114;DHT22;3087;48.392;10.836;2023-07-28T12:12:11;26.70;99.90
6114;DHT22;3087;48.392;10.836;2023-07-28T12:14:37;26.40;99.90
6114;DHT22;3087;48.392;10.836;2023-07-28T12:17:03;26.10;99.90
6114;DHT22;3087;48.392;10.836;2023-07-28T12:19:41;26.00;99.90
6114;DHT22;3087;48.392;10.836;2023-07-28T12:22:06;26.00;99.90
6114;DHT22;3087;48.392;10.836;2023-07-28T12:24:33;26.30;99.90
6114;DHT22;3087;48.392;10.836;2023-07-28T12:26:59;26.60;99.90
6114;DHT22;3087;48.392;10.836;2023-07-28T12:29:24;26.90;99.90
6114;DHT22;3087;48.392;10.836;2023-07-28T12:31:50;26.90;99.90
6114;DHT22;3087;48.392;10.836;2023-07-28T12:34:15;27.50;99.90
6114;DHT22;3087;48.392;10.836;2023-07-28T12:36:41;28.10;99.90
6114;DHT22;3087;48.392;10.836;2023-07-28T12:39:07;27.10;99.90
6114;DHT22;3087;48.392;10.836;2023-07-28T12:41:33;27.70;99.90
6114;DHT22;3087;48.392;10.836;2023-07-28T12:43:58;27.50;99.90
6114;DHT22;3087;48.392;10.836;2023-07-28T12:46:24;27.30;99.90
6114;DHT22;3087;48.392;10.836;2023-07-28T12:48:50;27.10;99.90
6114;DHT22;3087;48.392;10.836;2023-07-28T12:51:15;26.90;99.90
6114;DHT22;3087;48.392;10.836;2023-07-28T12:53:41;26.60;99.90
6114;DHT22;3087;48.392;10.836;2023-07-28T12:56:06;26.50;99.90
6114;DHT22;3087;48.392;10.836;2023-07-28T12:58:32;26.20;99.90
6114;DHT22;3087;48.392;10.836;2023-07-28T13:00:59;26.00;99.90
6114;DHT22;3087;48.392;10.836;2023-07-28T13:03:26;25.80;99.90
6114;DHT22;3087;48.392;10.836;2023-07-28T13:05:52;25.50;99.90
6114;DHT22;3087;48.392;10.836;2023-07-28T13:08:18;25.40;99.90
6114;DHT22;3087;48.392;10.836;2023-07-28T13:10:43;25.20;99.90
6114;DHT22;3087;48.392;10.836;2023-07-28T13:13:09;24.90;99.90
6114;DHT22;3087;48.392;10.836;2023-07-28T13:15:35;24.40;99.90
6114;DHT22;3087;48.392;10.836;2023-07-28T13:18:00;23.80;99.90
6114;DHT22;3087;48.392;10.836;2023-07-28T13:20:26;23.10;99.90
6114;DHT22;3087;48.392;10.836;2023-07-28T13:22:51;22.80;99.90
6114;DHT22;3087;48.392;10.836;2023-07-28T13:25:17;22.50;99.90
6114;DHT22;3087;48.392;10.836;2023-07-28T13:27:43;22.30;99.90
6114;DHT22;3087;48.392;10.836;2023-07-28T13:30:09;22.10;99.90
6114;DHT22;3087;48.392;10.836;2023-07-28T13:32:35;22.00;99.90
6114;DHT22;3087;48.392;10.836;2023-07-28T13:35:01;21.90;99.90
6114;DHT22;3087;48.392;10.836;2023-07-28T13:37:26;21.90;99.90
6114;DHT22;3087;48.392;10.836;2023-07-28T13:39:52;21.90;99.90
6114;DHT22;3087;48.392;10.836;2023-07-28T13:42:18;22.00;99.90
6114;DHT22;3087;48.392;10.836;2023-07-28T13:44:44;22.10;99.90
6114;DHT22;3087;48.392;10.836;2023-07-28T13:47:09;22.20;99.90
6114;DHT22;3087;48.392;10.836;2023-07-28T13:49:35;22.20;99.90
6114;DHT22;3087;48.392;10.836;2023-07-28T13:52:02;22.20;99.90
6114;DHT22;3087;48.392;10.836;2023-07-28T13:54:28;22.20;99.90
6114;DHT22;3087;48.392;10.836;2023-07-28T13:56:54;22.30;99.90
6114;DHT22;3087;48.392;10.836;2023-07-28T13:59:19;22.30;99.90
6114;DHT22;3087;48.392;10.836;2023-07-28T14:01:45;22.30;99.90
6114;DHT22;3087;48.392;10.836;2023-07-28T14:04:10;22.20;99.90
6114;DHT22;3087;48.392;10.836;2023-07-28T14:06:37;22.30;99.90
6114;DHT22;3087;48.392;10.836;2023-07-28T14:09:02;22.30;99.90
6114;DHT22;3087;48.392;10.836;2023-07-28T14:11:28;22.30;99.90
6114;DHT22;3087;48.392;10.836;2023-07-28T14:13:54;22.30;99.90
6114;DHT22;3087;48.392;10.836;2023-07-28T14:16:19;19.00;99.90
6114;DHT22;3087;48.392;10.836;2023-07-28T14:18:45;22.40;99.90
6114;DHT22;3087;48.392;10.836;2023-07-28T14:21:13;22.50;99.90
6114;DHT22;3087;48.392;10.836;2023-07-28T14:23:38;22.60;99.90
6114;DHT22;3087;48.392;10.836;2023-07-28T14:26:04;22.70;99.90
6114;DHT22;3087;48.392;10.836;2023-07-28T14:28:30;22.70;99.90
6114;DHT22;3087;48.392;10.836;2023-07-28T14:30:55;22.70;99.90
6114;DHT22;3087;48.392;10.836;2023-07-28T14:33:21;23.00;99.90
6114;DHT22;3087;48.392;10.836;2023-07-28T14:35:48;23.20;99.90
6114;DHT22;3087;48.392;10.836;2023-07-28T14:38:14;23.50;99.90
6114;DHT22;3087;48.392;10.836;2023-07-28T14:40:40;23.80;99.90
6114;DHT22;3087;48.392;10.836;2023-07-28T14:43:09;23.90;99.90
6114;DHT22;3087;48.392;10.836;2023-07-28T14:45:34;24.10;99.90
6114;DHT22;3087;48.392;10.836;2023-07-28T14:48:00;24.10;99.90
6114;DHT22;3087;48.392;10.836;2023-07-28T14:50:26;24.10;99.90
6114;DHT22;3087;48.392;10.836;2023-07-28T14:52:53;24.20;99.90
6114;DHT22;3087;48.392;10.836;2023-07-28T14:55:18;24.20;99.90
6114;DHT22;3087;48.392;10.836;2023-07-28T14:57:44;24.30;99.90
6114;DHT22;3087;48.392;10.836;2023-07-28T15:00:10;24.20;99.90
6114;DHT22;3087;48.392;10.836;2023-07-28T15:02:36;24.10;99.90
6114;DHT22;3087;48.392;10.836;2023-07-28T15:05:02;24.10;99.90
6114;DHT22;3087;48.392;10.836;2023-07-28T15:07:27;24.10;99.90
6114;DHT22;3087;48.392;10.836;2023-07-28T15:09:53;24.10;99.90
6114;DHT22;3087;48.392;10.836;2023-07-28T15:12:19;24.10;99.90
6114;DHT22;3087;48.392;10.836;2023-07-28T15:14:45;24.20;99.90
6114;DHT22;3087;48.392;10.836;2023-07-28T15:17:10;24.20;99.90
6114;DHT22;3087;48.392;10.836;2023-07-28T15:19:36;24.20;99.90
6114;DHT22;3087;48.392;10.836;2023-07-28T15:22:02;24.10;99.90
6114;DHT22;3087;48.392;10.836;2023-07-28T15:24:27;24.10;99.90
6114;DHT22;3087;48.392;10.836;2023-07-28T15:26:53;24.10;99.90
6114;DHT22;3087;48.392;10.836;2023-07-28T15:29:19;24.10;99.90
6114;DHT22;3087;48.392;10.836;2023-07-28T15:31:45;24.10;99.90
6114;DHT22;3087;48.392;10.836;2023-07-28T15:34:11;24.20;99.90
6114;DHT22;3087;48.392;10.836;2023-07-28T15:36:36;24.20;99.90
6114;DHT22;3087;48.392;10.836;2023-07-28T15:39:02;24.20;99.90
6114;DHT22;3087;48.392;10.836;2023-07-28T15:41:27;24.10;99.90
6114;DHT22;3087;48.392;10.836;2023-07-28T15:43:53;24.20;99.90
6114;DHT22;3087;48.392;10.836;2023-07-28T15:46:19;24.10;99.90
6114;DHT22;3087;48.392;10.836;2023-07-28T15:48:44;24.10;99.90
6114;DHT22;3087;48.392;10.836;2023-07-28T15:51:12;24.10;99.90
6114;DHT22;3087;48.392;10.836;2023-07-28T15:53:37;24.00;99.90